createdAt,value
2019-05-05T00:00:11.373Z,16.39
2019-05-05T00:03:56.760Z,16.33
2019-05-05T00:07:30.276Z,16.29
2019-05-05T00:11:28.069Z,16.33
2019-05-05T00:15:08.657Z,16.28
2019-05-05T00:18:38.750Z,16.37
2019-05-05T00:22:08.848Z,16.46
2019-05-05T00:25:38.905Z,16.47
2019-05-05T00:29:08.894Z,16.48
2019-05-05T00:32:39.044Z,16.35
2019-05-05T00:36:09.013Z,16.26
2019-05-05T00:39:40.040Z,16.15
2019-05-05T00:43:10.052Z,16.01
2019-05-05T00:47:05.561Z,15.94
2019-05-05T00:50:35.597Z,15.78
2019-05-05T00:54:05.639Z,15.75
2019-05-05T00:57:35.697Z,15.78
2019-05-05T01:00:21.055Z,15.76
2019-05-05T01:03:51.284Z,15.78
2019-05-05T01:07:21.404Z,15.84
2019-05-05T01:10:51.493Z,15.81
2019-05-05T01:14:21.576Z,15.85
2019-05-05T01:17:51.742Z,15.79
2019-05-05T01:21:21.961Z,15.83
2019-05-05T01:24:51.987Z,15.87
2019-05-05T01:28:24.774Z,15.81
2019-05-05T01:31:56.696Z,15.77
2019-05-05T01:35:26.865Z,15.81
2019-05-05T01:39:15.198Z,15.8
2019-05-05T01:42:45.397Z,15.77
2019-05-05T01:46:15.463Z,15.72
2019-05-05T01:49:45.569Z,15.67
2019-05-05T01:53:15.701Z,15.55
2019-05-05T01:56:46.192Z,15.48
2019-05-05T02:00:16.288Z,15.46
2019-05-05T02:03:46.349Z,15.44
2019-05-05T02:07:16.449Z,15.38
2019-05-05T02:10:46.651Z,15.41
2019-05-05T02:14:16.826Z,15.32
2019-05-05T02:17:46.921Z,15.27
2019-05-05T02:21:17.023Z,15.21
2019-05-05T02:24:47.065Z,15.2
2019-05-05T02:28:17.311Z,15.19
2019-05-05T02:32:56.609Z,15.22
2019-05-05T02:36:26.791Z,15.16
2019-05-05T02:40:02.619Z,15.14
2019-05-05T02:43:36.977Z,15.16
2019-05-05T02:47:15.682Z,15.09
2019-05-05T02:50:57.558Z,15.02
2019-05-05T02:54:33.777Z,15
2019-05-05T02:58:03.935Z,15
2019-05-05T03:01:48.054Z,15.03
2019-05-05T03:05:18.030Z,15.06
2019-05-05T03:08:48.747Z,15.09
2019-05-05T03:12:20.153Z,15.03
2019-05-05T03:16:14.718Z,14.97
2019-05-05T03:19:45.344Z,14.95
2019-05-05T03:23:15.740Z,14.9
2019-05-05T03:26:46.216Z,14.87
2019-05-05T03:30:18.399Z,14.81
2019-05-05T03:33:48.986Z,14.74
2019-05-05T03:37:19.179Z,14.7
2019-05-05T03:40:54.180Z,14.74
2019-05-05T03:44:28.236Z,14.78
2019-05-05T03:47:58.361Z,14.81
2019-05-05T03:51:28.664Z,14.84
2019-05-05T03:54:58.921Z,14.89
2019-05-05T03:58:29.260Z,14.92
2019-05-05T04:02:09.470Z,14.96
2019-05-05T04:05:57.230Z,14.99
2019-05-05T04:09:27.317Z,15.04
2019-05-05T04:12:58.678Z,15.1
2019-05-05T04:16:35.524Z,15.08
2019-05-05T04:20:26.202Z,15.05
2019-05-05T04:23:56.193Z,15.04
2019-05-05T04:27:26.291Z,15.05
2019-05-05T04:30:56.370Z,15.04
2019-05-05T04:34:26.443Z,15.09
2019-05-05T04:37:56.480Z,15.14
2019-05-05T04:41:26.600Z,15.24
2019-05-05T04:44:56.674Z,15.47
2019-05-05T04:48:35.137Z,15.62
2019-05-05T04:52:08.273Z,15.7
2019-05-05T04:55:38.432Z,15.84
2019-05-05T04:59:08.435Z,15.93
2019-05-05T05:00:13.856Z,15.94
2019-05-05T05:03:57.612Z,16.01
2019-05-05T05:07:27.705Z,15.92
2019-05-05T05:10:57.716Z,16.07
2019-05-05T05:14:27.760Z,16.01
2019-05-05T05:18:08.615Z,16.15
2019-05-05T05:21:38.709Z,16.21
2019-05-05T05:25:08.797Z,16.42
2019-05-05T05:28:38.821Z,16.58
2019-05-05T05:32:08.856Z,16.72
2019-05-05T05:35:38.865Z,16.77
2019-05-05T05:39:17.421Z,16.86
2019-05-05T05:42:47.389Z,16.97
2019-05-05T05:46:28.710Z,17.02
2019-05-05T05:50:05.239Z,17.35
2019-05-05T05:53:35.353Z,17.4
2019-05-05T05:57:05.481Z,17.48
2019-05-05T06:00:35.617Z,17.46
2019-05-05T06:04:05.700Z,17.33
2019-05-05T06:07:35.765Z,17.18
2019-05-05T06:11:05.857Z,17.21
2019-05-05T06:14:35.942Z,17.31
2019-05-05T06:18:05.955Z,17.43
2019-05-05T06:21:36.134Z,17.48
2019-05-05T06:25:06.922Z,17.35
2019-05-05T06:28:37.143Z,17.31
2019-05-05T06:32:07.182Z,17.19
2019-05-05T06:35:37.298Z,17.1
2019-05-05T06:39:07.718Z,17.16
2019-05-05T06:42:59.416Z,17.24
2019-05-05T06:46:34.224Z,17.29
2019-05-05T06:50:04.838Z,17.3
2019-05-05T06:53:34.978Z,17.36
2019-05-05T06:57:05.245Z,17.57
2019-05-05T07:00:13.968Z,17.84
2019-05-05T07:03:44.211Z,18.12
2019-05-05T07:07:14.702Z,18.32
2019-05-05T07:10:44.889Z,18.31
2019-05-05T07:14:14.911Z,18.2
2019-05-05T07:17:45.111Z,18.31
2019-05-05T07:21:15.073Z,18.23
2019-05-05T07:24:45.169Z,18.36
2019-05-05T07:28:15.262Z,18.55
2019-05-05T07:31:45.306Z,18.69
2019-05-05T07:35:21.897Z,18.83
2019-05-05T07:38:51.896Z,18.84
2019-05-05T07:42:24.163Z,18.79
2019-05-05T07:45:54.405Z,18.75
2019-05-05T07:49:24.519Z,18.82
2019-05-05T07:53:13.884Z,18.94
2019-05-05T07:56:45.163Z,18.82
2019-05-05T08:00:15.639Z,18.84
2019-05-05T08:03:45.640Z,18.67
2019-05-05T08:07:15.682Z,18.64
2019-05-05T08:11:01.337Z,18.84
2019-05-05T08:14:33.624Z,19.22
2019-05-05T08:18:24.339Z,19.19
2019-05-05T08:21:54.496Z,19.32
2019-05-05T08:26:05.458Z,19.64
2019-05-05T08:29:39.179Z,19.63
2019-05-05T08:33:09.303Z,19.58
2019-05-05T08:36:39.537Z,19.99
2019-05-05T08:40:09.798Z,20.23
2019-05-05T08:43:39.914Z,20.49
2019-05-05T08:47:10.012Z,20.72
2019-05-05T08:50:43.928Z,20.71
2019-05-05T08:54:14.418Z,20.18
2019-05-05T08:57:44.759Z,20.29
2019-05-05T09:00:13.907Z,20.14
2019-05-05T09:03:44.465Z,20.29
2019-05-05T09:07:14.616Z,20.54
2019-05-05T09:10:44.908Z,20.66
2019-05-05T09:14:15.114Z,20.65
2019-05-05T09:17:45.097Z,20.98
2019-05-05T09:21:15.163Z,21.13
2019-05-05T09:25:34.023Z,21.36
2019-05-05T09:29:34.721Z,21.47
2019-05-05T09:33:04.847Z,21.66
2019-05-05T09:36:35.109Z,21.45
2019-05-05T09:40:05.509Z,21.14
2019-05-05T09:43:35.539Z,21.62
2019-05-05T09:47:05.736Z,21.48
2019-05-05T09:50:35.912Z,21.32
2019-05-05T09:54:14.062Z,21.67
2019-05-05T09:57:44.543Z,21.99
2019-05-05T10:01:14.849Z,21.96
2019-05-05T10:04:44.933Z,21.95
2019-05-05T10:08:15.004Z,21.7
2019-05-05T10:11:45.158Z,21.73
2019-05-05T10:15:15.812Z,21.24
2019-05-05T10:18:45.935Z,20.76
2019-05-05T10:22:16.097Z,20.26
2019-05-05T10:25:48.700Z,20.07
2019-05-05T10:29:18.876Z,19.81
2019-05-05T10:32:48.935Z,19.66
2019-05-05T10:36:19.008Z,19.63
2019-05-05T10:39:51.627Z,19.53
2019-05-05T10:43:23.695Z,19.62
2019-05-05T10:46:54.002Z,19.66
2019-05-05T10:50:24.768Z,19.5
2019-05-05T10:53:55.032Z,19.52
2019-05-05T10:57:26.048Z,19.37
2019-05-05T11:00:24.361Z,19.46
2019-05-05T11:03:54.500Z,20.04
2019-05-05T11:07:24.598Z,21.14
2019-05-05T11:10:54.780Z,21.5
2019-05-05T11:14:24.859Z,21.53
2019-05-05T11:17:55.089Z,22.41
2019-05-05T11:21:25.108Z,23.37
2019-05-05T11:25:00.513Z,24.01
2019-05-05T11:28:31.154Z,24.03
2019-05-05T11:32:04.931Z,24.47
2019-05-05T11:35:54.131Z,24.22
2019-05-05T11:39:24.262Z,24.32
2019-05-05T11:42:54.426Z,24.06
2019-05-05T11:46:24.815Z,23.6
2019-05-05T11:49:56.708Z,23.28
2019-05-05T11:53:26.917Z,23.64
2019-05-05T11:56:56.910Z,23.86
2019-05-05T12:00:28.841Z,23.5
2019-05-05T12:03:58.963Z,23.04
2019-05-05T12:07:29.059Z,22.88
2019-05-05T12:11:00.510Z,22.65
2019-05-05T12:14:31.815Z,22.7
2019-05-05T12:18:03.776Z,23.75
2019-05-05T12:21:34.054Z,25.14
2019-05-05T12:25:36.450Z,25.76
2019-05-05T12:29:10.581Z,26
2019-05-05T12:32:40.576Z,25.02
2019-05-05T12:36:10.732Z,23.78
2019-05-05T12:39:40.805Z,23.47
2019-05-05T12:43:10.901Z,22.83
2019-05-05T12:46:48.901Z,22.87
2019-05-05T12:50:18.987Z,22.7
2019-05-05T12:53:49.110Z,22.74
2019-05-05T12:57:19.189Z,23.08
2019-05-05T13:00:14.663Z,22.95
2019-05-05T13:03:45.719Z,23.23
2019-05-05T13:07:15.829Z,23.96
2019-05-05T13:10:45.965Z,25.57
2019-05-05T13:14:16.019Z,26.59
2019-05-05T13:17:46.256Z,26.94
2019-05-05T13:23:44.492Z,27.63
2019-05-05T13:27:19.556Z,28.22
2019-05-05T13:30:50.020Z,28.12
2019-05-05T13:34:20.037Z,28.72
2019-05-05T13:37:50.154Z,28.76
2019-05-05T13:41:20.273Z,28.05
2019-05-05T13:47:12.515Z,28.31
2019-05-05T13:50:45.366Z,28.62
2019-05-05T13:54:15.579Z,28.67
2019-05-05T13:57:45.703Z,28.33
2019-05-05T14:01:15.861Z,27.44
2019-05-05T14:04:45.948Z,27.87
2019-05-05T14:08:16.059Z,28.38
2019-05-05T14:11:46.098Z,28.65
2019-05-05T14:15:17.074Z,29.23
2019-05-05T14:18:47.154Z,29.02
2019-05-05T14:22:17.228Z,29.05
2019-05-05T14:25:47.347Z,29.35
2019-05-05T14:29:40.053Z,28.99
2019-05-05T14:33:14.532Z,28.17
2019-05-05T14:36:50.358Z,27.23
2019-05-05T14:40:20.470Z,26.39
2019-05-05T14:43:50.539Z,24.82
2019-05-05T14:47:20.539Z,24.41
2019-05-05T14:50:50.680Z,25
2019-05-05T14:54:20.907Z,26.95
2019-05-05T14:57:51.042Z,28.39
2019-05-05T15:00:20.399Z,27.64
2019-05-05T15:03:50.563Z,26.6
2019-05-05T15:07:31.591Z,25.89
2019-05-05T15:11:14.201Z,25.13
2019-05-05T15:14:44.404Z,24.49
2019-05-05T15:18:14.687Z,24.15
2019-05-05T15:21:44.823Z,25
2019-05-05T15:25:15.044Z,26.38
2019-05-05T15:28:57.742Z,27.21
2019-05-05T15:32:29.386Z,27.89
2019-05-05T15:35:59.399Z,27.78
2019-05-05T15:39:29.461Z,27.29
2019-05-05T15:42:59.517Z,25.68
2019-05-05T15:46:29.627Z,24.32
2019-05-05T15:49:59.787Z,22.65
2019-05-05T15:53:29.929Z,21.53
2019-05-05T15:57:05.333Z,21.02
2019-05-05T16:00:38.617Z,20.57
2019-05-05T16:04:08.649Z,20.36
2019-05-05T16:07:39.817Z,20.38
2019-05-05T16:11:09.960Z,20.84
2019-05-05T16:14:49.472Z,21.15
2019-05-05T16:18:25.577Z,20.98
2019-05-05T16:21:58.828Z,21.02
2019-05-05T16:25:28.943Z,21.18
2019-05-05T16:28:58.931Z,21.2
2019-05-05T16:32:29.004Z,21.16
2019-05-05T16:35:59.212Z,21.14
2019-05-05T16:39:29.227Z,20.86
2019-05-05T16:42:59.377Z,20.6
2019-05-05T16:46:29.435Z,20.54
2019-05-05T16:49:59.534Z,20.24
2019-05-05T16:53:37.697Z,20.04
2019-05-05T16:57:07.816Z,20.16
2019-05-05T17:00:17.156Z,20.23
2019-05-05T17:03:47.279Z,20.35
2019-05-05T17:07:17.382Z,20.21
2019-05-05T17:10:47.618Z,20.12
2019-05-05T17:14:25.230Z,19.79
2019-05-05T17:18:05.279Z,19.71
2019-05-05T17:22:04.021Z,19.66
2019-05-05T17:25:34.311Z,19.7
2019-05-05T17:29:04.545Z,19.69
2019-05-05T17:32:34.588Z,19.66
2019-05-05T17:36:04.698Z,19.64
2019-05-05T17:39:39.773Z,19.72
2019-05-05T17:43:50.536Z,19.37
2019-05-05T17:47:26.004Z,19.07
2019-05-05T17:53:31.376Z,18.87
2019-05-05T17:57:03.366Z,18.67
2019-05-05T18:00:39.265Z,18.25
2019-05-05T18:04:09.449Z,18.03
2019-05-05T18:07:44.094Z,17.83
2019-05-05T18:11:20.322Z,17.72
2019-05-05T18:14:50.656Z,17.53
2019-05-05T18:18:20.769Z,17.46
2019-05-05T18:21:50.828Z,17.44
2019-05-05T18:25:20.834Z,17.37
2019-05-05T18:28:50.929Z,17.41
2019-05-05T18:32:21.054Z,17.43
2019-05-05T18:35:51.134Z,17.48
2019-05-05T18:39:21.182Z,17.53
2019-05-05T18:42:51.383Z,17.61
2019-05-05T18:46:21.655Z,17.61
2019-05-05T18:49:53.812Z,17.71
2019-05-05T18:53:24.137Z,17.74
2019-05-05T18:56:54.192Z,17.78
2019-05-05T19:00:26.275Z,17.86
2019-05-05T19:06:57.217Z,17.8
2019-05-05T19:10:27.363Z,17.84
2019-05-05T19:13:58.412Z,17.94
2019-05-05T19:17:28.962Z,17.91
2019-05-05T19:21:08.341Z,17.75
2019-05-05T19:24:38.465Z,17.58
2019-05-05T19:28:08.914Z,17.47
2019-05-05T19:31:39.057Z,17.35
2019-05-05T19:35:09.543Z,17.29
2019-05-05T19:38:39.722Z,17.29
2019-05-05T19:42:09.790Z,17.28
2019-05-05T19:45:39.795Z,17.17
2019-05-05T19:49:17.901Z,17.09
2019-05-05T19:52:48.128Z,17.21
2019-05-05T19:56:18.260Z,17.24
2019-05-05T19:59:48.302Z,17.28
2019-05-05T20:03:18.885Z,17.26
2019-05-05T20:06:49.078Z,17.32
2019-05-05T20:10:19.201Z,17.36
2019-05-05T20:13:49.360Z,17.35
2019-05-05T20:17:29.377Z,17.26
2019-05-05T20:21:03.904Z,17.13
2019-05-05T20:24:34.879Z,17.06
2019-05-05T20:28:04.982Z,17.02
2019-05-05T20:31:35.129Z,16.89
2019-05-05T20:35:10.968Z,16.79
2019-05-05T20:38:50.284Z,16.69
2019-05-05T20:42:20.327Z,16.52
2019-05-05T20:45:50.366Z,16.48
2019-05-05T20:49:20.513Z,16.61
2019-05-05T20:52:50.628Z,16.37
2019-05-05T20:56:20.669Z,16.19
2019-05-05T20:59:50.732Z,16.05
2019-05-05T21:00:17.962Z,16.05
2019-05-05T21:03:48.025Z,16.06
2019-05-05T21:07:18.194Z,16.06
2019-05-05T21:10:48.208Z,16.09
2019-05-05T21:14:31.102Z,16.08
2019-05-05T21:18:05.898Z,16.19
2019-05-05T21:21:38.585Z,16.28
2019-05-05T21:25:23.922Z,16.4
2019-05-05T21:28:54.046Z,16.49
2019-05-05T21:32:25.359Z,16.48
2019-05-05T21:35:55.525Z,16.45
2019-05-05T21:39:25.640Z,16.44
2019-05-05T21:42:55.762Z,16.46
2019-05-05T21:46:25.769Z,16.51
2019-05-05T21:49:55.814Z,16.47
2019-05-05T21:54:43.905Z,16.44
2019-05-05T21:58:18.207Z,16.46
2019-05-05T22:01:49.678Z,16.4
2019-05-05T22:05:20.019Z,16.34
2019-05-05T22:08:50.076Z,16.25
2019-05-05T22:12:20.218Z,16.14
2019-05-05T22:15:50.252Z,16.1
2019-05-05T22:19:24.599Z,16.11
2019-05-05T22:22:54.676Z,16.13
2019-05-05T22:26:24.749Z,16.22
2019-05-05T22:30:09.037Z,16.25
2019-05-05T22:33:40.275Z,16.28
2019-05-05T22:37:10.285Z,16.35
2019-05-05T22:40:40.482Z,16.41
2019-05-05T22:44:10.514Z,16.4
2019-05-05T22:47:40.562Z,16.41
2019-05-05T22:51:10.567Z,16.42
2019-05-05T22:54:40.722Z,16.42
2019-05-05T22:58:10.828Z,16.36
2019-05-05T23:00:28.395Z,16.33
2019-05-05T23:04:14.421Z,16.28
2019-05-05T23:07:44.583Z,16.26
2019-05-05T23:11:14.643Z,16.34
2019-05-05T23:14:44.717Z,16.45
2019-05-05T23:18:25.643Z,16.54
2019-05-05T23:22:06.161Z,16.62
2019-05-05T23:25:39.153Z,16.64
2019-05-05T23:29:09.262Z,16.68
2019-05-05T23:32:39.299Z,16.7
2019-05-05T23:36:09.442Z,16.72
2019-05-05T23:39:39.519Z,16.74
2019-05-05T23:43:09.562Z,16.79
2019-05-05T23:46:39.591Z,16.83
2019-05-05T23:50:09.707Z,16.84
2019-05-05T23:53:39.817Z,16.96
2019-05-05T23:57:09.990Z,17
